Grand Marais, MN

2:31 PM CST on February 26, 2017 (GMT -0600)
Grand Marais-Cook County

Weather History for KCKC - October, 2012

Change the Weather History Date:

Friday, October 5, 2012

  Actual Average Record
Temperature  
Mean Temperature 34 °F -  
Max Temperature 39 °F 52 °F 66 °F (2011)
Min Temperature 30 °F 35 °F 19 °F (2003)
Degree Days  
Heating Degree Days 30    
Moisture  
Dew Point 26 °F    
Average Humidity 77    
Maximum Humidity 87    
Minimum Humidity 65    
Precipitation  
Precipitation 0.01 in - - ()
Sea Level Pressure  
Sea Level Pressure 29.76 in    
Wind  
Wind Speed 12 mph (West)    
Max Wind Speed 17 mph    
Max Gust Speed 30 mph    
Visibility 8 miles    
Events Rain , Snow    
Averages and records for this station are not official NWS values.
T = Trace of Precipitation, MM = Missing Value Source: NWS Daily Summary

Daily Weather History Graph

Daily Weather History Graph

Search for Another Location

Airport or City:

Trip Planner

Search our weather history database for the weather conditions in past years. The results will help you decide how hot, cold, wet, or windy it might be!

Date:

Astronomy

Oct. 05, 2012 Rise Set
Actual Time 7:06 AM CDT 6:31 PM CDT
Civil Twilight 6:36 AM CDT 7:02 PM CDT
Nautical Twilight 6:00 AM CDT 7:38 PM CDT
Astronomical Twilight 5:23 AM CDT 8:14 PM CDT
Moon 9:34 PM CDT (10/5) 12:35 PM CDT (10/5)
Length of Visible Light 12h 26m
Length of Day
11h 24m
Waning Gibbous, 74% of the Moon is Illuminated
Oct 5
Waning Gibbous
Oct 8
Last Quarter
Oct 15
New
Oct 21
First Quarter
Oct 29
Full

Hourly Weather History & Observations

Time (CDT) Temp. Windchill Dew Point Humidity Pressure Visibility Wind Dir Wind Speed Gust Speed Precip Events Conditions
12:14 AM 33.8 °F 23.9 °F 24.8 °F 70% 29.70 in 10.0 mi SW 15.0 mph 23.0 mph N/A   Overcast
12:34 AM 33.8 °F 23.2 °F 24.8 °F 70% 29.70 in 10.0 mi SW 17.3 mph 26.5 mph N/A   Overcast
12:54 AM 33.8 °F 25.3 °F 24.8 °F 70% 29.69 in 10.0 mi SSW 11.5 mph 25.3 mph N/A   Overcast
1:13 AM 33.8 °F 26.4 °F 24.8 °F 70% 29.69 in 7.0 mi SW 9.2 mph 19.6 mph N/A   Overcast
1:34 AM 33.8 °F 24.3 °F 24.8 °F 70% 29.69 in 10.0 mi SW 13.8 mph 24.2 mph N/A   Overcast
1:54 AM 33.8 °F 23.9 °F 24.8 °F 70% 29.69 in 10.0 mi SW 15.0 mph 27.6 mph N/A   Overcast
2:13 AM 32.0 °F 23.0 °F 24.8 °F 75% 29.69 in 10.0 mi SW 11.5 mph 26.5 mph N/A   Overcast
2:34 AM 32.0 °F 22.5 °F 24.8 °F 75% 29.69 in 7.0 mi SW 12.7 mph 23.0 mph N/A   Overcast
2:54 AM 32.0 °F 21.6 °F 24.8 °F 75% 29.69 in 7.0 mi WSW 15.0 mph 27.6 mph N/A   Overcast
3:13 AM 32.0 °F 21.6 °F 24.8 °F 75% 29.69 in 7.0 mi WSW 15.0 mph 24.2 mph N/A   Overcast
3:34 AM 32.0 °F 22.5 °F 24.8 °F 75% 29.69 in 10.0 mi SW 12.7 mph 23.0 mph N/A   Overcast
3:54 AM 32.0 °F 21.6 °F 24.8 °F 75% 29.69 in 7.0 mi SW 15.0 mph 23.0 mph N/A   Overcast
4:13 AM 32.0 °F 24.2 °F 24.8 °F 75% 29.69 in 7.0 mi WSW 9.2 mph 24.2 mph N/A   Overcast
4:34 AM 32.0 °F 23.0 °F 24.8 °F 75% 29.69 in 7.0 mi SW 11.5 mph 29.9 mph N/A   Overcast
4:53 AM 32.0 °F 22.1 °F 24.8 °F 75% 29.69 in 7.0 mi WSW 13.8 mph 27.6 mph N/A   Overcast
5:14 AM 30.2 °F 19.3 °F 24.8 °F 80% 29.69 in 10.0 mi WSW 15.0 mph 21.9 mph N/A   Overcast
5:34 AM 30.2 °F 21.9 °F 24.8 °F 80% 29.69 in 10.0 mi WSW 9.2 mph 19.6 mph N/A   Overcast
5:54 AM 30.2 °F 18.9 °F 24.8 °F 80% 29.69 in 10.0 mi SW 16.1 mph 24.2 mph N/A   Overcast
6:13 AM 30.2 °F 21.3 °F 24.8 °F 80% 29.69 in 10.0 mi SW 10.4 mph 28.8 mph N/A   Overcast
6:34 AM 30.2 °F 20.2 °F 24.8 °F 80% 29.69 in 7.0 mi WSW 12.7 mph 23.0 mph N/A   Overcast
6:54 AM 30.2 °F 20.2 °F 24.8 °F 80% 29.70 in 10.0 mi WSW 12.7 mph 25.3 mph N/A   Overcast
7:13 AM 30.2 °F 21.9 °F 24.8 °F 80% 29.70 in 10.0 mi WSW 9.2 mph 24.2 mph N/A   Overcast
7:34 AM 30.2 °F 20.8 °F 24.8 °F 80% 29.70 in 10.0 mi SW 11.5 mph 24.2 mph N/A   Overcast
7:54 AM 30.2 °F 22.6 °F 24.8 °F 80% 29.70 in 10.0 mi SW 8.1 mph 21.9 mph N/A   Overcast
8:13 AM 32.0 °F 24.8 °F 24.8 °F 75% 29.70 in 10.0 mi SW 8.1 mph 23.0 mph N/A   Overcast
8:34 AM 32.0 °F 23.0 °F 24.8 °F 75% 29.70 in 10.0 mi SW 11.5 mph 24.2 mph N/A   Overcast
8:54 AM 32.0 °F 24.2 °F 24.8 °F 75% 29.71 in 10.0 mi WSW 9.2 mph 19.6 mph N/A   Overcast
9:13 AM 32.0 °F 23.6 °F 24.8 °F 75% 29.71 in 10.0 mi WSW 10.4 mph 23.0 mph N/A   Overcast
9:34 AM 33.8 °F 25.3 °F 24.8 °F 70% 29.71 in 10.0 mi WSW 11.5 mph 24.2 mph N/A   Overcast
9:54 AM 33.8 °F 24.3 °F 24.8 °F 70% 29.72 in 10.0 mi WSW 13.8 mph 20.7 mph N/A   Overcast
10:14 AM 33.8 °F 25.8 °F 24.8 °F 70% 29.72 in 10.0 mi WSW 10.4 mph 20.7 mph N/A   Overcast
10:33 AM 33.8 °F 25.3 °F 24.8 °F 70% 29.73 in 10.0 mi West 11.5 mph 23.0 mph N/A   Overcast
10:54 AM 33.8 °F 24.8 °F 24.8 °F 70% 29.73 in 10.0 mi WSW 12.7 mph 21.9 mph N/A   Overcast
11:34 AM 33.8 °F 24.8 °F 26.6 °F 75% 29.74 in 3.0 mi WSW 12.7 mph 21.9 mph N/A Snow Light Snow
11:54 AM 33.8 °F 25.8 °F 26.6 °F 75% 29.74 in 7.0 mi SW 10.4 mph 18.4 mph N/A Snow Light Snow
12:13 PM 33.8 °F 25.8 °F 26.6 °F 75% 29.75 in 7.0 mi WSW 10.4 mph 19.6 mph N/A Snow Light Snow
12:34 PM 33.8 °F 24.8 °F 26.6 °F 75% 29.75 in 10.0 mi WSW 12.7 mph 21.9 mph N/A   Overcast
12:54 PM 33.8 °F 24.3 °F 26.6 °F 75% 29.75 in 10.0 mi West 13.8 mph 19.6 mph N/A   Mostly Cloudy
1:34 PM 37.4 °F 29.3 °F 26.6 °F 65% 29.75 in 10.0 mi West 12.7 mph 24.2 mph N/A   Mostly Cloudy
1:54 PM 37.4 °F 28.9 °F 28.4 °F 70% 29.75 in 10.0 mi WSW 13.8 mph 23.0 mph N/A   Mostly Cloudy
2:13 PM 37.4 °F 29.3 °F 28.4 °F 70% 29.76 in 10.0 mi West 12.7 mph 23.0 mph N/A Snow Light Snow
2:33 PM 37.4 °F 30.3 °F 28.4 °F 70% 29.76 in 10.0 mi West 10.4 mph 21.9 mph N/A Rain Light Rain
2:54 PM 37.4 °F 30.3 °F 30.2 °F 75% 29.77 in 10.0 mi West 10.4 mph 19.6 mph N/A Rain Light Rain
3:14 PM 37.4 °F 29.3 °F 30.2 °F 75% 29.77 in 10.0 mi West 12.7 mph 21.9 mph N/A Rain Light Rain
3:34 PM 39.2 °F 31.6 °F 30.2 °F 70% 29.77 in 10.0 mi West 12.7 mph 20.7 mph N/A   Mostly Cloudy
3:54 PM 37.4 °F 29.3 °F 30.2 °F 75% 29.77 in 7.0 mi West 12.7 mph 19.6 mph N/A Rain Rain
4:14 PM 37.4 °F 29.8 °F 30.2 °F 75% 29.78 in 10.0 mi West 11.5 mph 19.6 mph N/A Rain Light Rain
4:34 PM 35.6 °F 28.6 °F 30.2 °F 81% 29.79 in 7.0 mi WNW 9.2 mph 20.7 mph N/A Rain Rain
4:53 PM 35.6 °F 27.5 °F 30.2 °F 81% 29.80 in 10.0 mi WNW 11.5 mph 18.4 mph N/A   Light Drizzle
5:13 PM 35.6 °F 27.5 °F 28.4 °F 75% 29.80 in 10.0 mi WNW 11.5 mph 19.6 mph N/A   Light Drizzle
5:34 PM 35.6 °F 28.6 °F 28.4 °F 75% 29.81 in 10.0 mi WNW 9.2 mph 16.1 mph N/A   Light Drizzle
5:54 PM 35.6 °F 28.6 °F 28.4 °F 75% 29.82 in 10.0 mi WNW 9.2 mph 20.7 mph N/A   Mostly Cloudy
6:13 PM 33.8 °F 25.3 °F 28.4 °F 81% 29.83 in 7.0 mi NW 11.5 mph 21.9 mph 0.01 in Rain Light Rain
6:34 PM 33.8 °F 25.3 °F 28.4 °F 81% 29.84 in 7.0 mi NW 11.5 mph 16.1 mph 0.01 in   Light Drizzle
6:54 PM 33.8 °F 25.3 °F 28.4 °F 81% 29.84 in 10.0 mi NW 11.5 mph 16.1 mph 0.01 in   Mostly Cloudy
7:13 PM 33.8 °F 24.8 °F 28.4 °F 81% 29.85 in 10.0 mi NW 12.7 mph 21.9 mph N/A   Scattered Clouds
7:34 PM 32.0 °F 22.5 °F 28.4 °F 87% 29.86 in 1.2 mi NW 12.7 mph 21.9 mph N/A Snow Light Snow
7:54 PM 32.0 °F 24.2 °F 28.4 °F 87% 29.87 in 10.0 mi NNW 9.2 mph - N/A   Mostly Cloudy
8:14 PM 32.0 °F 23.6 °F 28.4 °F 87% 29.87 in 5.0 mi NW 10.4 mph 17.3 mph N/A Snow Light Snow
8:34 PM 32.0 °F 24.2 °F 28.4 °F 87% 29.88 in 5.0 mi NW 9.2 mph - N/A Snow Light Snow
8:53 PM 32.0 °F 22.5 °F 26.6 °F 80% 29.88 in 7.0 mi NW 12.7 mph 25.3 mph N/A Snow Light Snow
9:13 PM 30.2 °F 19.8 °F 26.6 °F 86% 29.88 in 4.0 mi NNW 13.8 mph 20.7 mph N/A Snow Light Snow
9:34 PM 30.2 °F 21.3 °F 26.6 °F 86% 29.89 in 1.8 mi NW 10.4 mph 19.6 mph N/A Snow Light Snow
9:54 PM 30.2 °F 23.4 °F 26.6 °F 86% 29.89 in 2.5 mi NW 6.9 mph 19.6 mph N/A Snow Light Snow
10:34 PM 30.2 °F 20.2 °F 26.6 °F 86% 29.90 in 7.0 mi NNW 12.7 mph 19.6 mph N/A Snow Light Snow
10:54 PM 30.2 °F 21.3 °F 26.6 °F 86% 29.91 in 5.0 mi NNW 10.4 mph 19.6 mph N/A Snow Light Snow
11:13 PM 30.2 °F 20.8 °F 26.6 °F 86% 29.91 in 4.0 mi NNW 11.5 mph 20.7 mph N/A Snow Light Snow
11:34 PM 30.2 °F 20.8 °F 24.8 °F 80% 29.92 in 10.0 mi NNW 11.5 mph 23.0 mph N/A   Overcast
11:54 PM 30.2 °F 20.8 °F 24.8 °F 80% 29.93 in 7.0 mi NNW 11.5 mph 21.9 mph N/A   Overcast